Terminal Aerodrome Forecast
Issued by NWS Wilmington, OH

Current Version | Previous Version | Graphics & Text | Print | Product List | Glossary On
Versions: 1 2 3 4 5 6 7 8 9 10 11 12 13 14 15 16
000
FTUS41 KILN 211100
TAFILN
TAF
KILN 211120Z 2112/2212 19003KT P6SM BKN200
     FM211500 23011KT P6SM BKN150
     FM212000 23014KT P6SM FEW050 BKN150
     FM220000 23009KT P6SM OVC120
     FM220300 23008KT P6SM VCSH BKN050 OVC120
     FM220700 25011KT P6SM -SHRA OVC050
     FM221100 28013KT P6SM VCSH OVC015=

USA.gov is the U.S. government's official web portal to all federal, state and local government web resources and services.